Time,TemperatureF,DewpointF,PressureIn,WindDirection,WindDirectionDegrees,WindSpeedMPH,WindSpeedGustMPH,Humidity,HourlyPrecipIn,Conditions,Clouds,dailyrainin,SoftwareType,DateUTC
2013-04-18 00:01:00,74.3,65.0,30.00,ESE,107,0.0,-999.0,73,-99.99,,,0.00,weatherlink.com 1.10,2013-04-18 04:01:00,
2013-04-18 00:16:00,74.0,65.0,30.00,SE,140,7.0,-999.0,74,-99.99,,,0.00,weatherlink.com 1.10,2013-04-18 04:16:00,
2013-04-18 00:31:00,73.5,65.0,29.99,SSE,156,7.0,-999.0,75,-99.99,,,0.00,weatherlink.com 1.10,2013-04-18 04:31:00,
2013-04-18 00:46:00,73.2,65.0,29.98,East,95,0.0,-999.0,75,-99.99,,,0.00,weatherlink.com 1.10,2013-04-18 04:46:00,
2013-04-18 01:01:00,72.7,65.0,29.98,East,99,2.0,-999.0,76,-99.99,,,0.00,weatherlink.com 1.10,2013-04-18 05:01:00,
2013-04-18 01:16:00,72.4,65.0,29.97,East,79,0.0,-999.0,77,-99.99,,,0.00,weatherlink.com 1.10,2013-04-18 05:16:00,
2013-04-18 01:31:00,72.2,65.0,29.98,ESE,103,2.0,-999.0,77,-99.99,,,0.00,weatherlink.com 1.10,2013-04-18 05:31:00,
2013-04-18 01:46:00,71.9,65.0,29.97,East,99,0.0,-999.0,78,-99.99,,,0.00,weatherlink.com 1.10,2013-04-18 05:46:00,
2013-04-18 02:01:00,71.7,65.0,29.97,ESE,113,5.0,-999.0,78,-99.99,,,0.00,weatherlink.com 1.10,2013-04-18 06:01:00,
2013-04-18 02:16:00,71.5,65.0,29.97,East,87,0.0,-999.0,79,-99.99,,,0.00,weatherlink.com 1.10,2013-04-18 06:16:00,
2013-04-18 02:31:00,71.3,65.0,29.96,East,82,0.0,-999.0,79,-99.99,,,0.00,weatherlink.com 1.10,2013-04-18 06:31:00,
2013-04-18 02:46:00,71.0,64.0,29.96,East,79,0.0,-999.0,79,-99.99,,,0.00,weatherlink.com 1.10,2013-04-18 06:46:00,
2013-04-18 03:01:00,70.7,64.0,29.96,ESE,112,2.0,-999.0,80,-99.99,,,0.00,weatherlink.com 1.10,2013-04-18 07:01:00,
2013-04-18 03:16:00,70.5,64.0,29.96,East,101,0.0,-999.0,80,-99.99,,,0.00,weatherlink.com 1.10,2013-04-18 07:16:00,
2013-04-18 03:31:00,70.2,64.0,29.97,East,101,0.0,-999.0,80,-99.99,,,0.00,weatherlink.com 1.10,2013-04-18 07:31:00,
2013-04-18 03:46:00,70.1,64.0,29.96,ENE,60,0.0,-999.0,81,-99.99,,,0.00,weatherlink.com 1.10,2013-04-18 07:46:00,
2013-04-18 04:01:00,69.7,64.0,29.96,East,93,2.0,-999.0,81,-99.99,,,0.00,weatherlink.com 1.10,2013-04-18 08:01:00,
2013-04-18 04:16:00,69.3,64.0,29.95,ESE,104,0.0,-999.0,82,-99.99,,,0.00,weatherlink.com 1.10,2013-04-18 08:16:00,
2013-04-18 04:31:00,69.1,63.0,29.95,ESE,113,0.0,-999.0,82,-99.99,,,0.00,weatherlink.com 1.10,2013-04-18 08:31:00,
2013-04-18 04:46:00,69.0,63.0,29.95,ESE,105,7.0,-999.0,82,-99.99,,,0.00,weatherlink.com 1.10,2013-04-18 08:46:00,
2013-04-18 05:01:00,69.1,63.0,29.95,ESE,110,0.0,-999.0,82,-99.99,,,0.00,weatherlink.com 1.10,2013-04-18 09:01:00,
2013-04-18 05:31:00,69.0,63.0,29.95,ESE,109,7.0,-999.0,82,-99.99,,,0.00,weatherlink.com 1.10,2013-04-18 09:31:00,
2013-04-18 05:47:00,69.1,63.0,29.95,ESE,113,0.0,-999.0,82,-99.99,,,0.00,weatherlink.com 1.10,2013-04-18 09:47:00,
2013-04-18 06:01:00,69.1,63.0,29.95,ESE,111,0.0,-999.0,82,-99.99,,,0.00,weatherlink.com 1.10,2013-04-18 10:01:00,
2013-04-18 06:16:00,69.2,64.0,29.95,ESE,115,0.0,-999.0,82,-99.99,,,0.00,weatherlink.com 1.10,2013-04-18 10:16:00,
2013-04-18 06:31:00,69.2,64.0,29.96,East,90,2.0,-999.0,82,-99.99,,,0.00,weatherlink.com 1.10,2013-04-18 10:31:00,
2013-04-18 06:46:00,69.2,64.0,29.96,East,96,0.0,-999.0,82,-99.99,,,0.00,weatherlink.com 1.10,2013-04-18 10:46:00,
2013-04-18 07:01:00,69.2,64.0,29.97,East,96,0.0,-999.0,82,-99.99,,,0.00,weatherlink.com 1.10,2013-04-18 11:01:00,
2013-04-18 07:16:00,69.0,63.0,29.97,East,96,0.0,-999.0,82,-99.99,,,0.00,weatherlink.com 1.10,2013-04-18 11:16:00,
2013-04-18 07:31:00,69.1,63.0,29.97,East,96,0.0,-999.0,82,-99.99,,,0.00,weatherlink.com 1.10,2013-04-18 11:31:00,
2013-04-18 07:46:00,69.3,64.0,29.98,East,97,1.0,-999.0,82,-99.99,,,0.00,weatherlink.com 1.10,2013-04-18 11:46:00,
2013-04-18 08:01:00,69.6,64.0,29.98,East,97,0.0,-999.0,82,-99.99,,,0.00,weatherlink.com 1.10,2013-04-18 12:01:00,
2013-04-18 08:16:00,70.0,64.0,29.98,East,99,1.0,-999.0,82,-99.99,,,0.00,weatherlink.com 1.10,2013-04-18 12:16:00,
2013-04-18 08:31:00,70.4,65.0,29.98,ESE,112,0.0,-999.0,82,-99.99,,,0.00,weatherlink.com 1.10,2013-04-18 12:31:00,
2013-04-18 08:46:00,71.2,65.0,29.98,ESE,104,5.0,-999.0,81,-99.99,,,0.00,weatherlink.com 1.10,2013-04-18 12:46:00,
2013-04-18 09:01:00,72.1,66.0,29.98,ENE,67,4.0,-999.0,80,-99.99,,,0.00,weatherlink.com 1.10,2013-04-18 13:01:00,
2013-04-18 09:16:00,73.2,67.0,29.98,ESE,109,4.0,-999.0,80,-99.99,,,0.00,weatherlink.com 1.10,2013-04-18 13:16:00,
2013-04-18 09:31:00,74.0,67.0,29.98,SE,131,5.0,-999.0,78,-99.99,,,0.00,weatherlink.com 1.10,2013-04-18 13:31:00,
2013-04-18 09:46:00,75.0,68.0,29.98,ESE,121,0.0,-999.0,78,-99.99,,,0.00,weatherlink.com 1.10,2013-04-18 13:46:00,
2013-04-18 10:01:00,76.1,68.0,29.98,East,98,1.0,-999.0,77,-99.99,,,0.00,weatherlink.com 1.10,2013-04-18 14:01:00,
2013-04-18 10:16:00,77.4,69.0,29.98,SSE,150,0.0,-999.0,76,-99.99,,,0.00,weatherlink.com 1.10,2013-04-18 14:16:00,
2013-04-18 10:32:00,78.5,70.0,29.98,ESE,114,8.0,-999.0,74,-99.99,,,0.00,weatherlink.com 1.10,2013-04-18 14:32:00,
2013-04-18 10:47:00,79.4,70.0,29.98,SE,124,4.0,-999.0,73,-99.99,,,0.00,weatherlink.com 1.10,2013-04-18 14:47:00,
2013-04-18 11:02:00,80.4,70.0,29.97,East,84,3.0,-999.0,70,-99.99,,,0.00,weatherlink.com 1.10,2013-04-18 15:02:00,
2013-04-18 11:17:00,81.2,70.0,29.97,South,178,2.0,-999.0,68,-99.99,,,0.00,weatherlink.com 1.10,2013-04-18 15:17:00,
2013-04-18 11:32:00,82.3,70.0,29.97,South,172,6.0,-999.0,67,-99.99,,,0.00,weatherlink.com 1.10,2013-04-18 15:32:00,
2013-04-18 12:02:00,83.4,70.0,29.96,SSE,148,4.0,-999.0,65,-99.99,,,0.00,weatherlink.com 1.10,2013-04-18 16:02:00,
2013-04-18 12:17:00,84.1,70.0,29.97,SE,135,7.0,-999.0,63,-99.99,,,0.00,weatherlink.com 1.10,2013-04-18 16:17:00,
2013-04-18 12:32:00,84.1,71.0,29.97,SW,233,12.0,-999.0,65,-99.99,,,0.00,weatherlink.com 1.10,2013-04-18 16:32:00,
2013-04-18 12:47:00,79.1,71.0,29.97,WSW,240,12.0,-999.0,76,-99.99,,,0.00,weatherlink.com 1.10,2013-04-18 16:47:00,
2013-04-18 13:02:00,78.3,71.0,29.96,WSW,242,9.0,-999.0,78,-99.99,,,0.00,weatherlink.com 1.10,2013-04-18 17:02:00,
2013-04-18 13:17:00,78.5,71.0,29.96,WSW,240,10.0,-999.0,78,-99.99,,,0.00,weatherlink.com 1.10,2013-04-18 17:17:00,
2013-04-18 13:32:00,78.4,71.0,29.96,WSW,240,8.0,-999.0,78,-99.99,,,0.00,weatherlink.com 1.10,2013-04-18 17:32:00,
2013-04-18 13:47:00,78.9,71.0,29.96,SW,232,11.0,-999.0,77,-99.99,,,0.00,weatherlink.com 1.10,2013-04-18 17:47:00,
2013-04-18 14:02:00,79.6,71.0,29.95,WSW,237,13.0,-999.0,75,-99.99,,,0.00,weatherlink.com 1.10,2013-04-18 18:02:00,
2013-04-18 14:17:00,80.2,71.0,29.95,SW,223,13.0,-999.0,74,-99.99,,,0.00,weatherlink.com 1.10,2013-04-18 18:17:00,
2013-04-18 14:32:00,80.5,71.0,29.95,SW,221,17.0,-999.0,73,-99.99,,,0.00,weatherlink.com 1.10,2013-04-18 18:32:00,
2013-04-18 14:47:00,79.8,71.0,29.94,SW,232,12.0,-999.0,74,-99.99,,,0.00,weatherlink.com 1.10,2013-04-18 18:47:00,
2013-04-18 15:02:00,79.7,71.0,29.94,SW,234,9.0,-999.0,75,-99.99,,,0.00,weatherlink.com 1.10,2013-04-18 19:02:00,
2013-04-18 15:17:00,79.4,71.0,29.94,SW,236,10.0,-999.0,75,-99.99,,,0.00,weatherlink.com 1.10,2013-04-18 19:17:00,
2013-04-18 15:32:00,79.5,71.0,29.93,SW,235,9.0,-999.0,76,-99.99,,,0.00,weatherlink.com 1.10,2013-04-18 19:32:00,
2013-04-18 15:47:00,79.6,71.0,29.92,SW,234,11.0,-999.0,74,-99.99,,,0.00,weatherlink.com 1.10,2013-04-18 19:47:00,
2013-04-18 16:02:00,79.6,71.0,29.92,SW,232,8.0,-999.0,75,-99.99,,,0.00,weatherlink.com 1.10,2013-04-18 20:02:00,
2013-04-18 16:17:00,79.9,71.0,29.91,SW,220,13.0,-999.0,75,-99.99,,,0.00,weatherlink.com 1.10,2013-04-18 20:17:00,
2013-04-18 16:32:00,80.0,71.0,29.91,SW,227,13.0,-999.0,75,-99.99,,,0.00,weatherlink.com 1.10,2013-04-18 20:32:00,
2013-04-18 16:47:00,79.9,71.0,29.91,SW,227,10.0,-999.0,75,-99.99,,,0.00,weatherlink.com 1.10,2013-04-18 20:47:00,
2013-04-18 17:02:00,79.8,72.0,29.91,SW,230,11.0,-999.0,76,-99.99,,,0.00,weatherlink.com 1.10,2013-04-18 21:02:00,
2013-04-18 17:17:00,79.7,72.0,29.91,SW,227,10.0,-999.0,76,-99.99,,,0.00,weatherlink.com 1.10,2013-04-18 21:17:00,
2013-04-18 17:32:00,79.6,71.0,29.90,SW,227,9.0,-999.0,76,-99.99,,,0.00,weatherlink.com 1.10,2013-04-18 21:32:00,
2013-04-18 17:47:00,79.6,71.0,29.91,SW,229,10.0,-999.0,76,-99.99,,,0.00,weatherlink.com 1.10,2013-04-18 21:47:00,
2013-04-18 18:02:00,79.8,72.0,29.90,SW,230,9.0,-999.0,76,-99.99,,,0.00,weatherlink.com 1.10,2013-04-18 22:02:00,
2013-04-18 18:17:00,79.8,72.0,29.90,SW,227,9.0,-999.0,77,-99.99,,,0.00,weatherlink.com 1.10,2013-04-18 22:17:00,
2013-04-18 18:32:00,79.9,72.0,29.90,SW,219,9.0,-999.0,77,-99.99,,,0.00,weatherlink.com 1.10,2013-04-18 22:32:00,
2013-04-18 18:47:00,80.0,72.0,29.91,SW,229,8.0,-999.0,76,-99.99,,,0.00,weatherlink.com 1.10,2013-04-18 22:47:00,
2013-04-18 19:02:00,79.8,72.0,29.90,SW,217,9.0,-999.0,76,-99.99,,,0.00,weatherlink.com 1.10,2013-04-18 23:02:00,
2013-04-18 19:17:00,79.9,72.0,29.90,SW,228,10.0,-999.0,76,-99.99,,,0.00,weatherlink.com 1.10,2013-04-18 23:17:00,
2013-04-18 19:32:00,79.4,72.0,29.90,South,186,7.0,-999.0,77,-99.99,,,0.00,weatherlink.com 1.10,2013-04-18 23:32:00,
2013-04-18 19:47:00,78.5,71.0,29.91,South,175,4.0,-999.0,77,-99.99,,,0.00,weatherlink.com 1.10,2013-04-18 23:47:00,
2013-04-18 20:02:00,77.9,71.0,29.91,South,189,4.0,-999.0,78,-99.99,,,0.00,weatherlink.com 1.10,2013-04-19 00:02:00,
2013-04-18 20:17:00,77.6,71.0,29.91,SSW,202,5.0,-999.0,79,-99.99,,,0.00,weatherlink.com 1.10,2013-04-19 00:17:00,
2013-04-18 20:32:00,77.4,70.0,29.92,SSW,198,2.0,-999.0,79,-99.99,,,0.00,weatherlink.com 1.10,2013-04-19 00:32:00,
2013-04-18 20:47:00,77.2,71.0,29.92,SSW,198,2.0,-999.0,80,-99.99,,,0.00,weatherlink.com 1.10,2013-04-19 00:47:00,
2013-04-18 21:02:00,77.1,71.0,29.93,SSW,202,3.0,-999.0,80,-99.99,,,0.00,weatherlink.com 1.10,2013-04-19 01:02:00,
2013-04-18 21:17:00,77.2,71.0,29.93,SSW,199,6.0,-999.0,80,-99.99,,,0.00,weatherlink.com 1.10,2013-04-19 01:17:00,
2013-04-18 21:32:00,77.2,71.0,29.93,South,179,5.0,-999.0,80,-99.99,,,0.00,weatherlink.com 1.10,2013-04-19 01:32:00,
2013-04-18 21:47:00,77.2,71.0,29.94,South,186,6.0,-999.0,80,-99.99,,,0.00,weatherlink.com 1.10,2013-04-19 01:47:00,
2013-04-18 22:02:00,77.1,71.0,29.94,SSW,203,6.0,-999.0,80,-99.99,,,0.00,weatherlink.com 1.10,2013-04-19 02:02:00,
2013-04-18 22:17:00,77.1,71.0,29.95,South,190,4.0,-999.0,80,-99.99,,,0.00,weatherlink.com 1.10,2013-04-19 02:17:00,
2013-04-18 22:32:00,77.1,71.0,29.95,South,186,5.0,-999.0,81,-99.99,,,0.00,weatherlink.com 1.10,2013-04-19 02:32:00,
2013-04-18 22:47:00,77.2,71.0,29.96,SSW,196,4.0,-999.0,81,-99.99,,,0.00,weatherlink.com 1.10,2013-04-19 02:47:00,
2013-04-18 23:02:00,77.2,71.0,29.95,SSW,202,4.0,-999.0,81,-99.99,,,0.00,weatherlink.com 1.10,2013-04-19 03:02:00,
2013-04-18 23:17:00,77.3,71.0,29.95,SSW,203,6.0,-999.0,81,-99.99,,,0.00,weatherlink.com 1.10,2013-04-19 03:17:00,
2013-04-18 23:32:00,77.2,71.0,29.94,SSW,195,3.0,-999.0,80,-99.99,,,0.00,weatherlink.com 1.10,2013-04-19 03:32:00,
2013-04-18 23:47:00,77.2,71.0,29.94,SSW,195,3.0,-999.0,80,-99.99,,,0.00,weatherlink.com 1.10,2013-04-19 03:47:00,